Airfield :
LOGIN :

Register | Disclaimer

   EN    FR    IT 

 










Legend :    VFR   Marginal VFR   IFR   Intensive IFR   Very Intensive IFR
Visi :
Ceiling :
>= 8 km
>= 3000ft
5 to 8 km
1000 to 3000 ft
1500m to 5 km
500 to 1000 ft
800 to 1500m
200 to 500 ft
< 800m
< 200 ft
Symbols :   Thunderstorms  Fog  Heavy snow  Heavy precipitations  Wind > 20 kt
SIGMETs :     Misc.  Thunderstorms  Icing  Turbulence  Mountain Waves  Volcanic Ashes






- Airport Elevation : 87 ft
- IATA code : FSC


LFKF - Figari

CURRENT METAR :
  • 230200Z AUTO 05008KT 020V080 9999 -RA FEW021/// OVC076/// ///TCU 16/13 Q1005

EXPIRED METARs :
  • 230130Z AUTO 06009KT 9999 FEW024 BKN076 BKN088 16/12 Q1005
  • 230100Z AUTO 06007KT 020V090 9999 SCT026 BKN090 OVC130 16/12 Q1005
  • 230030Z AUTO 07006KT 030V100 9999 FEW024 OVC090 16/12 Q1005
  • 230000Z AUTO 06008KT 020V090 9999 FEW026 OVC090 16/12 Q1006
  • 222330Z AUTO 05007KT 020V100 9999 ///TCU 16/12 Q1006

TAF TAF LFKF
Valid from the 22 at 15:00 until the 23 at 15:00 UTC


221400Z 2215/2315 VRB03KT 9999 BKN025 BKN050
BECMG 2217/2218 06010KT
TEMPO 2215/2312 RA FEW035TCU
BECMG 2312/2313 RA BKN012 BKN020 FEW030TCU



MET'MAP, your aeronautical weather chart ! - Copyright ORBIFLY December 2007 - Disclaimer

ORBIFLY MET'MAP TEAM :

Programming & Development : Alexandra Zaïnal
Concept & Development : Baudouin d'Aumeries
Co-Development & Prog : Marc-Olivier Méhu
Technical & hardware support : Manuel Goepfert

Contact : metmap@orbifly.com




SOURCES & CREDITS :

   NOAA